Flight Track Log - Related Links

Times and Time Zones

All times are in EDT time to prevent confusion due to time zone crossing. See the EJA694 flight status page for this flight to view local times or setup timezone preferences in your user account.

Time Position Orientation Groundspeed Altitude Reporting Facility
EDT Latitude Longitude Course Direction KTS MPH feet Rate Location/Type
Wed 02:29:54 PM 36.1333 -86.6833 22° Northeast 160 184 1,200  Level Nashville TRACON
Wed 02:30:42 PM 36.1667 -86.6667 22° Northeast 196 226 3,300 2,661 Climbing Nashville TRACON
Wed 02:31:49 PM 36.1833 -86.7333 287° West 245 282 6,300 2,712 Climbing Nashville TRACON
Wed 02:32:26 PM 36.1825 -86.8008 269° West 255 293 8,000 2,907 Climbing Memphis Center
Wed 02:33:26 PM 36.1994 -86.8797 285° West 260 299 11,000 2,850 Climbing Memphis Center
Wed 02:34:26 PM 36.2469 -86.9394 315° West 236 272 13,700 2,300 Climbing Memphis Center
Wed 02:35:26 PM 36.2942 -86.9942 317° Northwest 246 283 15,600 1,800 Climbing Memphis Center
Wed 02:36:26 PM 36.3464 -87.0667 312° West 276 318 17,300 1,350 Climbing Memphis Center
Wed 02:37:26 PM 36.4028 -87.1572 308° West 309 356 18,300 1,250 Climbing Memphis Center
Wed 02:38:26 PM 36.4636 -87.2478 310° West 336 387 19,800 800 Climbing Memphis Center
Wed 02:39:26 PM 36.5367 -87.3431 314° West 350 403 19,900 1,750 Climbing Memphis Center
Wed 02:40:26 PM 36.6056 -87.4308 314° West 360 414 23,300 2,100 Climbing Memphis Center
Wed 02:42:26 PM 36.7450 -87.6069 315° West 365 420 26,200 1,433 Climbing Memphis Center
Wed 02:43:26 PM 36.8158 -87.7031 313° West 370 426 27,600 1,400 Climbing Memphis Center
Wed 02:44:26 PM 36.8886 -87.7942 315° West 370 426 29,000 1,400 Climbing Memphis Center
Wed 02:45:26 PM 36.9553 -87.8933 310° West 370 426 30,400 1,300 Climbing Memphis Center
Wed 02:46:26 PM 37.0014 -88.0114 296° West 370 426 31,600 1,050 Climbing Memphis Center
Wed 02:47:26 PM 37.0469 -88.1139 299° West 375 432 32,500 950 Climbing Memphis Center
Wed 02:48:26 PM 37.1136 -88.2239 307° West 387 445 33,500 950 Climbing Memphis Center
Wed 02:49:26 PM 37.1839 -88.3261 311° West 392 451 34,400 559 Climbing Memphis Center
Wed 02:51:07 PM 37.3053 -88.5119 309° West 401 461 35,000 298 Climbing Kansas City Center
Wed 02:52:07 PM 37.3814 -88.6283 309° West 418 481 35,200 339 Climbing Kansas City Center
Wed 02:53:11 PM 37.4592 -88.7469 310° West 432 497 35,700 384 Climbing Kansas City Center
Wed 02:54:12 PM 37.5347 -88.8633 309° West 432 497 36,000 145 Climbing Kansas City Center
Wed 02:55:15 PM 37.6122 -88.9850 309° West 441 507 36,000  Level Kansas City Center
Wed 02:56:15 PM 37.6889 -89.1047 309° West 441 507 36,000 677 Level Kansas City Center
Wed 02:57:19 PM 37.7783 -89.2453 309° West 432 497 37,400 1,392 Climbing Kansas City Center
Wed 02:58:20 PM 37.8492 -89.3558 309° West 401 461 38,900 1,230 Climbing Kansas City Center
Wed 02:59:21 PM 37.9167 -89.4600 309° West 386 444 39,900 541 Climbing Kansas City Center
Wed 03:00:22 PM 37.9842 -89.5664 309° West 388 447 40,000 48 Climbing Kansas City Center
Wed 03:01:26 PM 38.0614 -89.6872 309° West 408 470 40,000  Level Kansas City Center
Wed 03:02:27 PM 38.1339 -89.8014 309° West 420 483 40,000  Level Kansas City Center
Wed 03:03:28 PM 38.2081 -89.9206 308° West 427 491 40,000  Level Kansas City Center
Wed 03:04:31 PM 38.2822 -90.0383 309° West 428 493 40,000  Level Kansas City Center
Wed 03:05:33 PM 38.3567 -90.1567 309° West 427 491 40,000  Level Kansas City Center
Wed 03:06:34 PM 38.4292 -90.2744 308° West 424 488 40,000  Level Kansas City Center
Wed 03:07:38 PM 38.5117 -90.4106 308° West 424 488 40,000  Level Kansas City Center
Wed 03:08:38 PM 38.5883 -90.5292 310° West 429 494 40,000  Level Kansas City Center
Wed 03:09:42 PM 38.6619 -90.6497 308° West 441 507 40,000  Level Kansas City Center
Wed 03:10:43 PM 38.7439 -90.7853 308° West 432 497 40,000  Level Kansas City Center
Wed 03:11:44 PM 38.8178 -90.9050 308° West 428 493 40,000  Level Kansas City Center
Wed 03:12:47 PM 38.8911 -91.0256 308° West 428 493 40,000  Level Kansas City Center
Wed 03:13:48 PM 38.9644 -91.1461 308° West 428 493 40,000  Level Kansas City Center
Wed 03:14:51 PM 39.0378 -91.2669 308° West 429 494 40,000  Level Kansas City Center
Wed 03:15:52 PM 39.1092 -91.3881 307° West 426 490 40,000  Level Kansas City Center
Wed 03:16:55 PM 39.1964 -91.5342 308° West 428 493 40,000  Level Kansas City Center
Wed 03:17:57 PM 39.2692 -91.6556 308° West 429 494 40,000  Level Kansas City Center
Wed 03:18:58 PM 39.3464 -91.7861 307° West 430 495 40,000  Level Kansas City Center
Wed 03:20:01 PM 39.4186 -91.9086 307° West 431 496 40,000  Level Kansas City Center
Wed 03:21:03 PM 39.4914 -92.0319 307° West 433 498 40,000  Level Kansas City Center
Wed 03:22:03 PM 39.5631 -92.1575 307° West 434 499 40,000  Level Kansas City Center
Wed 03:23:07 PM 39.6033 -92.3039 290° West 436 502 40,000  Level Kansas City Center
Wed 03:24:08 PM 39.6475 -92.4469 292° West 432 497 40,000  Level Kansas City Center
Wed 03:25:11 PM 39.7014 -92.6164 293° West 427 491 40,000  Level Kansas City Center
Wed 03:26:11 PM 39.7522 -92.7575 295° West 429 494 40,000  Level Kansas City Center
Wed 03:27:15 PM 39.8044 -92.8944 296° West 428 493 40,000  Level Kansas City Center
Wed 03:28:16 PM 39.8628 -93.0300 299° West 428 493 40,000  Level Kansas City Center
Wed 03:29:17 PM 39.9297 -93.1586 304° West 431 496 40,000  Level Kansas City Center
Wed 03:30:20 PM 39.9933 -93.2878 303° West 427 491 40,000  Level Kansas City Center
Wed 03:31:22 PM 40.0708 -93.4425 303° West 426 490 40,000  Level Kansas City Center
Wed 03:32:22 PM 40.1358 -93.5733 303° West 428 493 40,000  Level Kansas City Center
Wed 03:33:26 PM 40.2008 -93.7025 303° West 429 494 40,000  Level Kansas City Center
Wed 03:34:26 PM 40.2642 -93.8322 303° West 427 491 40,000  Level Kansas City Center
Wed 03:35:30 PM 40.3275 -93.9622 303° West 427 491 40,000  Level Kansas City Center
Wed 03:36:10 PM 40.3750 -94.0681 301° West 428 493 40,000  Level Minneapolis Center
Wed 03:37:12 PM 40.4386 -94.1994 302° West 429 494 40,000  Level Minneapolis Center
Wed 03:38:14 PM 40.5036 -94.3308 303° West 431 496 40,000  Level Minneapolis Center
Wed 03:39:16 PM 40.5669 -94.4619 302° West 429 494 40,000  Level Minneapolis Center
Wed 03:40:18 PM 40.6411 -94.6153 303° West 429 494 40,000  Level Minneapolis Center
Wed 03:41:20 PM 40.7042 -94.7472 302° West 426 490 40,000  Level Minneapolis Center
Wed 03:42:22 PM 40.7678 -94.8783 303° West 425 489 40,000  Level Minneapolis Center
Wed 03:43:24 PM 40.8319 -95.0103 303° West 425 489 40,000  Level Minneapolis Center
Wed 03:44:26 PM 40.9064 -95.1667 302° West 422 486 40,000  Level Minneapolis Center
Wed 03:45:29 PM 40.9692 -95.2994 302° West 423 487 40,000  Level Minneapolis Center
Wed 03:46:31 PM 41.0311 -95.4339 301° West 425 489 40,000  Level Minneapolis Center
Wed 03:47:33 PM 41.0931 -95.5703 301° West 431 496 40,000  Level Minneapolis Center
Wed 03:48:35 PM 41.1619 -95.7158 302° West 427 491 40,000  Level Minneapolis Center
Wed 03:49:37 PM 41.2242 -95.8500 302° West 428 493 40,000  Level Minneapolis Center
Wed 03:50:39 PM 41.2864 -95.9858 301° West 430 495 40,000  Level Minneapolis Center
Wed 03:51:41 PM 41.3489 -96.1208 302° West 430 495 40,000  Level Minneapolis Center
Wed 03:52:43 PM 41.4217 -96.2822 301° West 425 489 40,000  Level Minneapolis Center
Wed 03:53:45 PM 41.4836 -96.4186 301° West 426 490 40,000  Level Minneapolis Center
Wed 03:54:47 PM 41.5450 -96.5544 301° West 429 494 40,000  Level Minneapolis Center
Wed 03:55:50 PM 41.6047 -96.6900 301° West 426 490 40,000  Level Minneapolis Center
Wed 03:56:52 PM 41.6658 -96.8258 301° West 426 490 40,000  Level Minneapolis Center
Wed 03:57:54 PM 41.7275 -96.9622 301° West 427 491 40,000  Level Minneapolis Center
Wed 03:58:56 PM 41.7892 -97.1008 301° West 431 496 40,000  Level Minneapolis Center
Wed 03:59:59 PM 41.8622 -97.2661 301° West 430 495 40,000  Level Minneapolis Center
Wed 04:01:02 PM 41.9217 -97.4028 300° West 427 491 40,000  Level Minneapolis Center
Wed 04:02:04 PM 41.9819 -97.5400 301° West 426 490 40,000  Level Minneapolis Center
Wed 04:03:06 PM 42.0419 -97.6786 300° West 427 491 40,000  Level Minneapolis Center
Wed 04:04:08 PM 42.1006 -97.8142 300° West 423 487 40,000  Level Minneapolis Center
Wed 04:05:10 PM 42.1683 -97.9744 300° West 420 483 40,000  Level Minneapolis Center
Wed 04:06:12 PM 42.2272 -98.1094 301° West 418 481 40,000  Level Minneapolis Center
Wed 04:07:14 PM 42.2853 -98.2461 300° West 420 483 40,000  Level Minneapolis Center
Wed 04:08:16 PM 42.3428 -98.3819 300° West 419 482 40,000  Level Minneapolis Center
Wed 04:09:18 PM 42.3994 -98.5164 300° West 415 478 40,000  Level Minneapolis Center
Wed 04:10:20 PM 42.4683 -98.6803 300° West 416 479 40,000  Level Minneapolis Center
Wed 04:11:22 PM 42.5217 -98.8211 297° West 420 483 40,000  Level Minneapolis Center
Wed 04:12:24 PM 42.5731 -98.9586 297° West 413 475 40,000  Level Minneapolis Center
Wed 04:13:27 PM 42.6247 -99.0986 297° West 415 478 40,000  Level Minneapolis Center
Wed 04:14:29 PM 42.6758 -99.2369 297° West 411 473 40,000  Level Minneapolis Center
Wed 04:15:30 PM 42.7169 -99.3483 297° West 412 474 40,000  Level Minneapolis Center
Wed 04:16:33 PM 42.7881 -99.5442 296° West 413 475 40,000  Level Minneapolis Center
Wed 04:17:34 PM 42.8278 -99.6558 296° West 411 473 40,000  Level Minneapolis Center
Wed 04:18:37 PM 42.8856 -99.8172 296° West 412 474 40,000  Level Minneapolis Center
Wed 04:19:39 PM 42.9367 -99.9564 297° West 410 472 40,000  Level Minneapolis Center
Wed 04:20:54 PM 43.0064 -100.1525 296° West 410 472 40,000  Level Minneapolis Center
Wed 04:21:56 PM 43.0564 -100.2936 296° West 411 473 40,000  Level Minneapolis Center
Wed 04:22:44 PM 43.0969 -100.4036 297° West 409 471 40,000  Level Denver Center
Wed 04:23:46 PM 43.1461 -100.5447 296° West 410 472 40,000  Level Denver Center
Wed 04:24:48 PM 43.1953 -100.6850 296° West 408 470 40,000  Level Denver Center
Wed 04:25:50 PM 43.2450 -100.8278 296° West 412 474 40,000  Level Denver Center
Wed 04:26:52 PM 43.2939 -100.9681 296° West 406 467 40,000  Level Denver Center
Wed 04:27:54 PM 43.3533 -101.1400 295° West 414 476 40,000  Level Denver Center
Wed 04:29:09 PM 43.4111 -101.3111 295° West 410 472 40,000  Level Denver Center
Wed 04:30:11 PM 43.4597 -101.4519 295° West 408 470 40,000  Level Denver Center
Wed 04:31:13 PM 43.5078 -101.5950 295° West 410 472 40,000  Level Denver Center
Wed 04:32:15 PM 43.5556 -101.7367 295° West 407 468 40,000  Level Denver Center
Wed 04:33:17 PM 43.6044 -101.8794 295° West 410 472 40,000  Level Denver Center
Wed 04:34:19 PM 43.6508 -102.0208 294° West 407 468 40,000  Level Denver Center
Wed 04:35:21 PM 43.7025 -102.1747 295° West 406 467 40,000  Level Denver Center
Wed 04:36:23 PM 43.7558 -102.3336 295° West 408 470 40,000  Level Denver Center
Wed 04:37:25 PM 43.8003 -102.4694 294° West 406 467 40,000  Level Denver Center
Wed 04:38:27 PM 43.8506 -102.6272 294° West 402 463 40,000  Level Denver Center
Wed 04:39:29 PM 43.8958 -102.7650 295° West 407 468 40,000  Level Denver Center
Wed 04:40:31 PM 43.9486 -102.9256 295° West 410 472 40,000  Level Denver Center
Wed 04:41:33 PM 43.9772 -103.0678 286° West 406 467 40,000  Level Denver Center
Wed 04:42:47 PM 43.9803 -103.2447 271° West 408 470 40,000  Level Denver Center
Wed 04:43:49 PM 43.9844 -103.4200 272° West 406 467 40,000  Level Denver Center
Wed 04:44:51 PM 43.9872 -103.5939 271° West 407 468 40,000  Level Denver Center
Wed 04:45:53 PM 43.9894 -103.7428 271° West 405 466 40,000  Level Denver Center
Wed 04:46:56 PM 43.9928 -103.9181 272° West 408 470 40,000  Level Denver Center
Wed 04:47:58 PM 43.9942 -104.0681 271° West 408 470 40,000  Level Denver Center
Wed 04:49:00 PM 43.9967 -104.2442 271° West 411 473 40,000  Level Denver Center
Wed 04:50:02 PM 43.9978 -104.3908 271° West 403 464 40,000  Level Denver Center
Wed 04:51:04 PM 44.0006 -104.5661 271° West 406 467 40,000  Level Denver Center
Wed 04:52:06 PM 44.0017 -104.7161 271° West 407 468 40,000  Level Denver Center
Wed 04:53:08 PM 44.0028 -104.8917 271° West 408 470 40,000  Level Denver Center
Wed 04:54:10 PM 44.0044 -105.0394 271° West 403 464 40,000  Level Denver Center
Wed 04:55:12 PM 44.0042 -105.2142 270° West 405 466 40,000  Level Denver Center
Wed 04:56:14 PM 44.0039 -105.3650 270° West 408 470 40,000  Level Denver Center
Wed 04:57:16 PM 44.0053 -105.5369 271° West 404 465 40,000  Level Denver Center
Wed 04:58:18 PM 44.0053 -105.6872 270° West 406 467 40,000  Level Denver Center
Wed 04:59:20 PM 44.0047 -105.8625 270° West 407 468 40,000  Level Denver Center
Wed 05:00:23 PM 44.0056 -106.0111 270° West 405 466 40,000  Level Denver Center
Wed 05:01:12 PM 44.0028 -106.1531 268° West 409 471 40,000  Level Salt Lake Center
Wed 05:02:14 PM 44.0006 -106.3108 269° West 410 472 40,000  Level Salt Lake Center
Wed 05:03:16 PM 44.0128 -106.4658 276° West 412 474 40,000  Level Salt Lake Center
Wed 05:04:18 PM 44.0678 -106.6011 300° West 404 465 40,000  Level Salt Lake Center
Wed 05:05:20 PM 44.1225 -106.7400 299° West 408 470 40,000  Level Salt Lake Center
Wed 05:06:22 PM 44.1778 -106.8761 300° West 405 466 40,000  Level Salt Lake Center
Wed 05:07:24 PM 44.2439 -107.0417 299° West 408 470 40,000  Level Salt Lake Center
Wed 05:08:26 PM 44.2986 -107.1797 299° West 408 470 40,000  Level Salt Lake Center
Wed 05:09:28 PM 44.3539 -107.3172 299° West 407 468 40,000  Level Salt Lake Center
Wed 05:10:30 PM 44.4083 -107.4531 299° West 402 463 40,000  Level Salt Lake Center
Wed 05:11:32 PM 44.4628 -107.5928 299° West 406 467 40,000  Level Salt Lake Center
Wed 05:12:34 PM 44.5158 -107.7292 299° West 400 460 40,000  Level Salt Lake Center
Wed 05:13:36 PM 44.5711 -107.8692 299° West 403 464 40,000  Level Salt Lake Center
Wed 05:14:38 PM 44.6342 -108.0383 298° West 405 466 40,000  Level Salt Lake Center
Wed 05:15:40 PM 44.7147 -108.1547 314° West 415 478 40,000  Level Salt Lake Center
Wed 05:16:42 PM 44.8108 -108.2511 325° Northwest 417 480 40,000  Level Salt Lake Center
Wed 05:17:44 PM 44.9033 -108.3478 324° Northwest 415 478 40,000 -532 Level Salt Lake Center
Wed 05:18:46 PM 44.9931 -108.4450 323° Northwest 411 473 38,900 -1,452 Descending Salt Lake Center
Wed 05:19:48 PM 45.0825 -108.5414 323° Northwest 407 468 37,000 -1,839 Descending Salt Lake Center
Wed 05:20:50 PM 45.1686 -108.6378 322° Northwest 400 460 35,100 -1,452 Descending Salt Lake Center
Wed 05:21:52 PM 45.2569 -108.7347 322° Northwest 401 461 34,000 -774 Descending Salt Lake Center
Wed 05:22:54 PM 45.3647 -108.8522 323° Northwest 407 468 33,500 -1,065 Descending Salt Lake Center
Wed 05:23:56 PM 45.4572 -108.9542 322° Northwest 419 482 31,800 -1,935 Descending Salt Lake Center
Wed 05:24:58 PM 45.5475 -109.0531 323° Northwest 412 474 29,500 -2,226 Descending Salt Lake Center
Wed 05:26:00 PM 45.6383 -109.1564 322° Northwest 417 480 27,200 -2,129 Descending Salt Lake Center
Wed 05:27:02 PM 45.7342 -109.2664 321° Northwest 439 505 25,100 -1,887 Descending Salt Lake Center
Wed 05:28:04 PM 45.8081 -109.3839 312° West 390 449 23,300 -1,935 Descending Salt Lake Center
Wed 05:29:06 PM 45.8203 -109.5478 276° West 346 398 21,100 -2,419 Descending Salt Lake Center
Wed 05:30:08 PM 45.8175 -109.6844 268° West 328 377 18,300 -1,984 Descending Salt Lake Center
Wed 05:31:10 PM 45.8150 -109.8083 268° West 317 365 17,000 -629 Descending Salt Lake Center
Wed 05:32:12 PM 45.8169 -109.9325 271° West 324 373 17,000  Level Salt Lake Center
Wed 05:33:14 PM 45.8136 -110.0553 268° West 320 368 17,000 -677 Level Salt Lake Center
Wed 05:34:16 PM 45.8092 -110.1967 267° West 308 354 15,600 -1,645 Descending Salt Lake Center
Wed 05:35:18 PM 45.8058 -110.3131 268° West 301 346 13,600 -1,248 Descending Salt Lake Center
Wed 05:36:21 PM 45.8022 -110.4300 268° West 297 342 13,000 -288 Descending Salt Lake Center
Wed 05:37:23 PM 45.7997 -110.5500 268° West 299 344 13,000 -290 Level Salt Lake Center
Wed 05:38:25 PM 45.7975 -110.6742 269° West 305 351 12,400 -484 Descending Salt Lake Center
Wed 05:39:27 PM 45.7903 -110.7956 265° West 285 328 12,000 -194 Descending Salt Lake Center
Wed 05:40:29 PM 45.7878 -110.8892 268° West 239 275 12,000 -339 Level Salt Lake Center
Wed 05:41:31 PM 45.7861 -110.9875 269° West 243 280 11,300 -1,742 Descending Salt Lake Center
Wed 05:42:33 PM 45.8061 -111.0839 287° West 235 270 8,400 -1,984 Descending Salt Lake Center
Wed 05:43:35 PM 45.8436 -111.1386 315° West 214 246 7,200 -1,210 Descending Salt Lake Center
Wed 05:44:37 PM 45.8506 -111.1928 280° West 180 207 5,900 -968 Descending Salt Lake Center
Wed 05:45:39 PM 45.8167 -111.2058 195° South 154 177 5,200 -677 Descending Salt Lake Center
Wed 05:46:41 PM 45.7836 -111.1614 137° Southeast 143 165 4,500 -677 Descending Salt Lake Center

Login

Don't have an account? Register now (free) for customized features, flight alerts, and more!